sensor_id;sensor_type;location;lat;lon;timestamp;pressure;altitude;pressure_sealevel;temperature;humidity
15750;BME280;7976;52.526;13.326;2023-04-28T00:01:42;101497.28;;;9.13;55.39
15750;BME280;7976;52.526;13.326;2023-04-28T00:04:11;101494.75;;;9.09;55.81
15750;BME280;7976;52.526;13.326;2023-04-28T00:06:37;101493.06;;;9.06;55.65
15750;BME280;7976;52.526;13.326;2023-04-28T00:09:05;101485.22;;;9.06;55.76
15750;BME280;7976;52.526;13.326;2023-04-28T00:11:35;101491.34;;;9.05;55.98
15750;BME280;7976;52.526;13.326;2023-04-28T00:14:02;101491.41;;;9.02;55.99
15750;BME280;7976;52.526;13.326;2023-04-28T00:16:29;101492.28;;;9.01;55.96
15750;BME280;7976;52.526;13.326;2023-04-28T00:18:56;101498.41;;;9.00;55.77
15750;BME280;7976;52.526;13.326;2023-04-28T00:21:24;101493.19;;;9.00;56.05
15750;BME280;7976;52.526;13.326;2023-04-28T00:23:51;101481.91;;;8.98;55.95
15750;BME280;7976;52.526;13.326;2023-04-28T00:26:17;101484.50;;;8.98;55.85
15750;BME280;7976;52.526;13.326;2023-04-28T00:28:44;101483.75;;;8.92;55.42
15750;BME280;7976;52.526;13.326;2023-04-28T00:31:12;101488.09;;;8.93;55.55
15750;BME280;7976;52.526;13.326;2023-04-28T00:33:40;101489.00;;;8.90;55.42
15750;BME280;7976;52.526;13.326;2023-04-28T00:36:08;101489.06;;;8.87;55.28
15750;BME280;7976;52.526;13.326;2023-04-28T00:38:37;101487.34;;;8.86;55.41
15750;BME280;7976;52.526;13.326;2023-04-28T00:41:04;101484.75;;;8.84;55.16
15750;BME280;7976;52.526;13.326;2023-04-28T00:43:31;101478.69;;;8.84;55.10
15750;BME280;7976;52.526;13.326;2023-04-28T00:45:58;101480.47;;;8.82;55.03
15750;BME280;7976;52.526;13.326;2023-04-28T00:48:25;101472.69;;;8.80;55.29
15750;BME280;7976;52.526;13.326;2023-04-28T00:50:52;101474.41;;;8.80;54.99
15750;BME280;7976;52.526;13.326;2023-04-28T00:53:19;101471.78;;;8.81;55.33
15750;BME280;7976;52.526;13.326;2023-04-28T00:55:48;101472.72;;;8.79;55.13
15750;BME280;7976;52.526;13.326;2023-04-28T00:58:16;101467.50;;;8.79;55.17
15750;BME280;7976;52.526;13.326;2023-04-28T01:00:42;101465.72;;;8.79;54.91
15750;BME280;7976;52.526;13.326;2023-04-28T01:03:09;101470.88;;;8.82;55.51
15750;BME280;7976;52.526;13.326;2023-04-28T01:05:36;101468.28;;;8.81;55.39
15750;BME280;7976;52.526;13.326;2023-04-28T01:08:04;101463.94;;;8.81;55.32
15750;BME280;7976;52.526;13.326;2023-04-28T01:10:31;101468.28;;;8.81;55.52
15750;BME280;7976;52.526;13.326;2023-04-28T01:13:06;101464.84;;;8.80;55.47
15750;BME280;7976;52.526;13.326;2023-04-28T01:15:33;101454.47;;;8.76;55.51
15750;BME280;7976;52.526;13.326;2023-04-28T01:18:00;101456.28;;;8.74;55.50
15750;BME280;7976;52.526;13.326;2023-04-28T01:20:27;101453.69;;;8.71;55.97
15750;BME280;7976;52.526;13.326;2023-04-28T01:22:54;101443.31;;;8.68;56.00
15750;BME280;7976;52.526;13.326;2023-04-28T01:25:22;101449.50;;;8.64;56.07
15750;BME280;7976;52.526;13.326;2023-04-28T01:27:49;101443.47;;;8.60;55.91
15750;BME280;7976;52.526;13.326;2023-04-28T01:30:17;101446.13;;;8.59;56.05
15750;BME280;7976;52.526;13.326;2023-04-28T01:32:44;101446.13;;;8.59;56.04
15750;BME280;7976;52.526;13.326;2023-04-28T01:35:11;101443.50;;;8.59;56.61
15750;BME280;7976;52.526;13.326;2023-04-28T01:37:37;101443.53;;;8.56;56.34
15750;BME280;7976;52.526;13.326;2023-04-28T01:40:05;101424.47;;;8.52;56.51
15750;BME280;7976;52.526;13.326;2023-04-28T01:42:34;101432.28;;;8.54;56.55
15750;BME280;7976;52.526;13.326;2023-04-28T01:45:01;101431.38;;;8.55;56.71
15750;BME280;7976;52.526;13.326;2023-04-28T01:47:28;101435.72;;;8.56;56.70
15750;BME280;7976;52.526;13.326;2023-04-28T01:49:54;101434.91;;;8.54;56.55
15750;BME280;7976;52.526;13.326;2023-04-28T01:52:21;101434.03;;;8.53;56.76
15750;BME280;7976;52.526;13.326;2023-04-28T01:54:49;101434.88;;;8.55;56.57
15750;BME280;7976;52.526;13.326;2023-04-28T01:57:16;101421.78;;;8.57;56.65
15750;BME280;7976;52.526;13.326;2023-04-28T01:59:44;101425.28;;;8.56;56.81
15750;BME280;7976;52.526;13.326;2023-04-28T02:02:11;101420.06;;;8.56;57.01
15750;BME280;7976;52.526;13.326;2023-04-28T02:04:39;101421.84;;;8.54;56.86
15750;BME280;7976;52.526;13.326;2023-04-28T02:07:06;101430.50;;;8.56;57.04
15750;BME280;7976;52.526;13.326;2023-04-28T02:09:33;101427.06;;;8.54;57.60
15750;BME280;7976;52.526;13.326;2023-04-28T02:12:00;101421.00;;;8.52;57.21
15750;BME280;7976;52.526;13.326;2023-04-28T02:14:27;101425.38;;;8.51;57.10
15750;BME280;7976;52.526;13.326;2023-04-28T02:16:55;101419.25;;;8.52;57.37
15750;BME280;7976;52.526;13.326;2023-04-28T02:19:22;101426.16;;;8.55;57.24
15750;BME280;7976;52.526;13.326;2023-04-28T02:21:48;101422.72;;;8.53;57.18
15750;BME280;7976;52.526;13.326;2023-04-28T02:24:15;101419.28;;;8.51;56.89
15750;BME280;7976;52.526;13.326;2023-04-28T02:26:42;101421.94;;;8.48;57.27
15750;BME280;7976;52.526;13.326;2023-04-28T02:29:09;101419.41;;;8.45;57.48
15750;BME280;7976;52.526;13.326;2023-04-28T02:31:35;101415.09;;;8.44;57.65
15750;BME280;7976;52.526;13.326;2023-04-28T02:34:04;101416.88;;;8.40;57.63
15750;BME280;7976;52.526;13.326;2023-04-28T02:36:31;101411.63;;;8.42;57.94
15750;BME280;7976;52.526;13.326;2023-04-28T02:38:59;101412.47;;;8.42;58.30
15750;BME280;7976;52.526;13.326;2023-04-28T02:41:26;101410.75;;;8.41;58.15
15750;BME280;7976;52.526;13.326;2023-04-28T02:43:54;101413.41;;;8.40;58.29
15750;BME280;7976;52.526;13.326;2023-04-28T02:46:21;101410.75;;;8.41;58.69
15750;BME280;7976;52.526;13.326;2023-04-28T02:48:48;101403.84;;;8.40;58.95
15750;BME280;7976;52.526;13.326;2023-04-28T02:51:16;101401.25;;;8.39;58.84
15750;BME280;7976;52.526;13.326;2023-04-28T02:53:43;101400.47;;;8.32;58.72
15750;BME280;7976;52.526;13.326;2023-04-28T02:56:10;101400.50;;;8.31;58.87
15750;BME280;7976;52.526;13.326;2023-04-28T02:58:37;101404.03;;;8.28;59.22
15750;BME280;7976;52.526;13.326;2023-04-28T03:01:03;101396.25;;;8.27;59.26
15750;BME280;7976;52.526;13.326;2023-04-28T03:03:30;101399.75;;;8.24;59.44
15750;BME280;7976;52.526;13.326;2023-04-28T03:05:58;101403.25;;;8.22;59.81
15750;BME280;7976;52.526;13.326;2023-04-28T03:08:26;101397.22;;;8.20;60.26
15750;BME280;7976;52.526;13.326;2023-04-28T03:10:53;101396.38;;;8.18;60.40
15750;BME280;7976;52.526;13.326;2023-04-28T03:13:20;101393.72;;;8.19;60.36
15750;BME280;7976;52.526;13.326;2023-04-28T03:15:50;101391.09;;;8.21;60.73
15750;BME280;7976;52.526;13.326;2023-04-28T03:18:17;101394.66;;;8.17;60.51
15750;BME280;7976;52.526;13.326;2023-04-28T03:20:44;101381.69;;;8.12;60.79
15750;BME280;7976;52.526;13.326;2023-04-28T03:23:10;101384.31;;;8.11;60.92
15750;BME280;7976;52.526;13.326;2023-04-28T03:25:39;101380.84;;;8.12;61.06
15750;BME280;7976;52.526;13.326;2023-04-28T03:28:06;101391.28;;;8.12;60.95
15750;BME280;7976;52.526;13.326;2023-04-28T03:30:33;101393.91;;;8.10;61.05
15750;BME280;7976;52.526;13.326;2023-04-28T03:33:00;101392.19;;;8.08;61.25
15750;BME280;7976;52.526;13.326;2023-04-28T03:35:26;101376.63;;;8.03;61.70
15750;BME280;7976;52.526;13.326;2023-04-28T03:37:53;101381.91;;;8.00;61.79
15750;BME280;7976;52.526;13.326;2023-04-28T03:40:20;101374.13;;;7.97;62.07
15750;BME280;7976;52.526;13.326;2023-04-28T03:43:07;101375.88;;;7.97;61.87
15750;BME280;7976;52.526;13.326;2023-04-28T03:45:39;101376.72;;;7.99;61.67
15750;BME280;7976;52.526;13.326;2023-04-28T03:48:06;101378.41;;;8.01;61.86
15750;BME280;7976;52.526;13.326;2023-04-28T03:50:33;101371.47;;;8.02;62.21
15750;BME280;7976;52.526;13.326;2023-04-28T03:53:00;101374.06;;;8.02;61.83
15750;BME280;7976;52.526;13.326;2023-04-28T03:55:28;101377.53;;;8.01;62.06
15750;BME280;7976;52.526;13.326;2023-04-28T03:57:55;101367.97;;;8.01;61.87
15750;BME280;7976;52.526;13.326;2023-04-28T04:00:23;101371.44;;;8.03;61.73
15750;BME280;7976;52.526;13.326;2023-04-28T04:02:52;101366.13;;;8.08;61.80
15750;BME280;7976;52.526;13.326;2023-04-28T04:05:18;101360.00;;;8.12;61.54
15750;BME280;7976;52.526;13.326;2023-04-28T04:07:45;101358.22;;;8.14;61.61
15750;BME280;7976;52.526;13.326;2023-04-28T04:10:12;101365.09;;;8.18;61.69
15750;BME280;7976;52.526;13.326;2023-04-28T04:12:42;101356.41;;;8.19;61.29
15750;BME280;7976;52.526;13.326;2023-04-28T04:15:09;101365.91;;;8.21;61.68
15750;BME280;7976;52.526;13.326;2023-04-28T04:17:39;101354.47;;;8.30;61.55
15750;BME280;7976;52.526;13.326;2023-04-28T04:20:07;101356.16;;;8.32;61.45
15750;BME280;7976;52.526;13.326;2023-04-28T04:22:34;101359.63;;;8.33;61.22
15750;BME280;7976;52.526;13.326;2023-04-28T04:25:02;101363.16;;;8.32;61.33
15750;BME280;7976;52.526;13.326;2023-04-28T04:27:28;101357.88;;;8.35;61.40
15750;BME280;7976;52.526;13.326;2023-04-28T04:29:55;101356.91;;;8.40;61.42
15750;BME280;7976;52.526;13.326;2023-04-28T04:32:22;101353.31;;;8.46;61.49
15750;BME280;7976;52.526;13.326;2023-04-28T04:34:51;101349.81;;;8.47;60.94
15750;BME280;7976;52.526;13.326;2023-04-28T04:37:18;101346.28;;;8.49;60.95
15750;BME280;7976;52.526;13.326;2023-04-28T04:39:51;101348.94;;;8.48;61.17
15750;BME280;7976;52.526;13.326;2023-04-28T04:42:18;101351.56;;;8.46;60.72
15750;BME280;7976;52.526;13.326;2023-04-28T04:44:55;101342.06;;;8.42;60.81
15750;BME280;7976;52.526;13.326;2023-04-28T04:47:26;101345.47;;;8.46;60.55
15750;BME280;7976;52.526;13.326;2023-04-28T04:49:55;101343.75;;;8.46;60.56
15750;BME280;7976;52.526;13.326;2023-04-28T04:52:22;101338.50;;;8.48;60.70
15750;BME280;7976;52.526;13.326;2023-04-28T04:54:50;101342.84;;;8.49;60.46
15750;BME280;7976;52.526;13.326;2023-04-28T04:57:17;101336.72;;;8.50;60.51
15750;BME280;7976;52.526;13.326;2023-04-28T05:00:04;101332.38;;;8.50;60.55
15750;BME280;7976;52.526;13.326;2023-04-28T05:02:31;101333.19;;;8.54;60.70
15750;BME280;7976;52.526;13.326;2023-04-28T05:05:00;101335.72;;;8.57;60.52
15750;BME280;7976;52.526;13.326;2023-04-28T05:07:27;101328.69;;;8.60;60.60
15750;BME280;7976;52.526;13.326;2023-04-28T05:09:54;101332.91;;;8.66;60.72
15750;BME280;7976;52.526;13.326;2023-04-28T05:12:21;101344.09;;;8.72;60.36
15750;BME280;7976;52.526;13.326;2023-04-28T05:14:48;101330.09;;;8.76;60.20
15750;BME280;7976;52.526;13.326;2023-04-28T05:17:18;101328.25;;;8.81;60.31
15750;BME280;7976;52.526;13.326;2023-04-28T05:19:45;101318.63;;;8.85;60.10
15750;BME280;7976;52.526;13.326;2023-04-28T05:22:14;101313.28;;;8.89;59.71
15750;BME280;7976;52.526;13.326;2023-04-28T05:24:41;101316.66;;;8.95;59.73
15750;BME280;7976;52.526;13.326;2023-04-28T05:27:07;101318.22;;;9.03;59.36
15750;BME280;7976;52.526;13.326;2023-04-28T05:29:34;101319.88;;;9.07;59.06
15750;BME280;7976;52.526;13.326;2023-04-28T05:32:01;101314.59;;;9.10;59.20
15750;BME280;7976;52.526;13.326;2023-04-28T05:34:28;101310.97;;;9.17;58.86
15750;BME280;7976;52.526;13.326;2023-04-28T05:36:56;101309.94;;;9.24;58.58
15750;BME280;7976;52.526;13.326;2023-04-28T05:39:28;101308.00;;;9.32;58.15
15750;BME280;7976;52.526;13.326;2023-04-28T05:41:57;101305.16;;;9.41;58.06
15750;BME280;7976;52.526;13.326;2023-04-28T05:44:24;101304.13;;;9.48;57.54
15750;BME280;7976;52.526;13.326;2023-04-28T05:46:51;101299.66;;;9.53;57.40
15750;BME280;7976;52.526;13.326;2023-04-28T05:49:22;101301.22;;;9.60;57.28
15750;BME280;7976;52.526;13.326;2023-04-28T05:51:49;101298.47;;;9.66;57.01
15750;BME280;7976;52.526;13.326;2023-04-28T05:54:16;101295.75;;;9.71;56.90
15750;BME280;7976;52.526;13.326;2023-04-28T05:56:48;101295.63;;;9.75;56.51
15750;BME280;7976;52.526;13.326;2023-04-28T05:59:17;101296.50;;;9.76;56.04
15750;BME280;7976;52.526;13.326;2023-04-28T06:01:44;101285.97;;;9.79;56.36
15750;BME280;7976;52.526;13.326;2023-04-28T06:04:11;101285.84;;;9.83;55.89
15750;BME280;7976;52.526;13.326;2023-04-28T06:06:38;101288.31;;;9.89;56.00
15750;BME280;7976;52.526;13.326;2023-04-28T06:09:05;101284.63;;;9.96;55.98
15750;BME280;7976;52.526;13.326;2023-04-28T06:11:32;101286.09;;;10.06;55.74
15750;BME280;7976;52.526;13.326;2023-04-28T06:14:01;101277.19;;;10.15;55.66
15750;BME280;7976;52.526;13.326;2023-04-28T06:16:28;101272.66;;;10.22;55.52
15750;BME280;7976;52.526;13.326;2023-04-28T06:18:56;101277.72;;;10.28;55.29
15750;BME280;7976;52.526;13.326;2023-04-28T06:21:23;101278.41;;;10.34;54.82
15750;BME280;7976;52.526;13.326;2023-04-28T06:23:52;101279.16;;;10.39;54.53
15750;BME280;7976;52.526;13.326;2023-04-28T06:26:19;101267.66;;;10.45;54.41
15750;BME280;7976;52.526;13.326;2023-04-28T06:28:46;101270.81;;;10.56;54.27
15750;BME280;7976;52.526;13.326;2023-04-28T06:31:14;101266.09;;;10.68;53.75
15750;BME280;7976;52.526;13.326;2023-04-28T06:33:41;101264.88;;;10.80;53.14
15750;BME280;7976;52.526;13.326;2023-04-28T06:36:08;101259.47;;;10.86;52.95
15750;BME280;7976;52.526;13.326;2023-04-28T06:38:38;101263.63;;;10.93;52.70
15750;BME280;7976;52.526;13.326;2023-04-28T06:41:05;101255.66;;;10.96;52.18
15750;BME280;7976;52.526;13.326;2023-04-28T06:43:33;101255.47;;;11.02;51.86
15750;BME280;7976;52.526;13.326;2023-04-28T06:46:07;101254.41;;;11.07;51.94
15750;BME280;7976;52.526;13.326;2023-04-28T06:48:36;101250.75;;;11.13;51.60
15750;BME280;7976;52.526;13.326;2023-04-28T06:51:03;101245.31;;;11.19;51.29
15750;BME280;7976;52.526;13.326;2023-04-28T06:53:33;101250.38;;;11.25;51.06
15750;BME280;7976;52.526;13.326;2023-04-28T06:56:00;101245.94;;;11.27;51.04
15750;BME280;7976;52.526;13.326;2023-04-28T06:58:27;101239.75;;;11.29;50.94
15750;BME280;7976;52.526;13.326;2023-04-28T07:00:54;101239.69;;;11.31;50.63
15750;BME280;7976;52.526;13.326;2023-04-28T07:03:21;101233.53;;;11.32;50.53
15750;BME280;7976;52.526;13.326;2023-04-28T07:05:49;101236.16;;;11.32;50.30
15750;BME280;7976;52.526;13.326;2023-04-28T07:08:16;101236.03;;;11.36;50.28
15750;BME280;7976;52.526;13.326;2023-04-28T07:10:42;101238.28;;;11.47;50.09
15750;BME280;7976;52.526;13.326;2023-04-28T07:13:10;101224.88;;;11.56;50.18
15750;BME280;7976;52.526;13.326;2023-04-28T07:15:37;101222.84;;;11.66;49.85
15750;BME280;7976;52.526;13.326;2023-04-28T07:18:04;101230.34;;;11.76;49.52
15750;BME280;7976;52.526;13.326;2023-04-28T07:20:30;101216.94;;;11.85;49.05
15750;BME280;7976;52.526;13.326;2023-04-28T07:22:59;101212.16;;;11.96;48.64
15750;BME280;7976;52.526;13.326;2023-04-28T07:25:26;101213.44;;;12.09;48.44
15750;BME280;7976;52.526;13.326;2023-04-28T07:27:52;101210.38;;;12.21;47.57
15750;BME280;7976;52.526;13.326;2023-04-28T07:30:20;101203.88;;;12.31;47.13
15750;BME280;7976;52.526;13.326;2023-04-28T07:32:47;101203.56;;;12.40;47.21
15750;BME280;7976;52.526;13.326;2023-04-28T07:35:14;101195.25;;;12.51;46.73
15750;BME280;7976;52.526;13.326;2023-04-28T07:37:41;101192.28;;;12.60;46.42
15750;BME280;7976;52.526;13.326;2023-04-28T07:40:10;101194.91;;;12.60;46.12
15750;BME280;7976;52.526;13.326;2023-04-28T07:42:37;101199.19;;;12.62;46.08
15750;BME280;7976;52.526;13.326;2023-04-28T07:45:06;101186.69;;;12.69;46.28
15750;BME280;7976;52.526;13.326;2023-04-28T07:47:33;101186.50;;;12.74;46.20
15750;BME280;7976;52.526;13.326;2023-04-28T07:50:01;101181.81;;;12.82;46.31
15750;BME280;7976;52.526;13.326;2023-04-28T07:52:30;101183.22;;;12.90;45.76
15750;BME280;7976;52.526;13.326;2023-04-28T07:54:57;101183.97;;;12.94;45.97
15750;BME280;7976;52.526;13.326;2023-04-28T07:57:26;101182.88;;;12.99;46.03
15750;BME280;7976;52.526;13.326;2023-04-28T07:59:54;101173.00;;;13.06;45.76
15750;BME280;7976;52.526;13.326;2023-04-28T08:02:20;101171.28;;;13.05;45.57
15750;BME280;7976;52.526;13.326;2023-04-28T08:04:47;101167.00;;;13.02;45.50
15750;BME280;7976;52.526;13.326;2023-04-28T08:07:14;101174.56;;;13.10;45.57
15750;BME280;7976;52.526;13.326;2023-04-28T08:09:41;101174.56;;;13.10;45.37
15750;BME280;7976;52.526;13.326;2023-04-28T08:12:12;101170.25;;;13.09;45.46
15750;BME280;7976;52.526;13.326;2023-04-28T08:14:40;101166.75;;;13.08;45.70
15750;BME280;7976;52.526;13.326;2023-04-28T08:17:07;101176.28;;;13.11;45.76
15750;BME280;7976;52.526;13.326;2023-04-28T08:19:34;101171.50;;;13.20;45.61
15750;BME280;7976;52.526;13.326;2023-04-28T08:22:01;101172.84;;;13.30;45.65
15750;BME280;7976;52.526;13.326;2023-04-28T08:24:30;101172.28;;;13.44;45.53
15750;BME280;7976;52.526;13.326;2023-04-28T08:27:00;101170.09;;;13.53;45.21
15750;BME280;7976;52.526;13.326;2023-04-28T08:29:28;101159.41;;;13.58;45.01
15750;BME280;7976;52.526;13.326;2023-04-28T08:31:56;101160.06;;;13.63;45.16
15750;BME280;7976;52.526;13.326;2023-04-28T08:34:23;101156.88;;;13.75;45.22
15750;BME280;7976;52.526;13.326;2023-04-28T08:36:51;101161.41;;;13.92;45.34
15750;BME280;7976;52.526;13.326;2023-04-28T08:39:18;101153.69;;;14.07;45.16
15750;BME280;7976;52.526;13.326;2023-04-28T08:41:48;101151.50;;;14.17;44.50
15750;BME280;7976;52.526;13.326;2023-04-28T08:44:15;101150.38;;;14.22;44.27
15750;BME280;7976;52.526;13.326;2023-04-28T08:46:43;101143.16;;;14.27;44.25
15750;BME280;7976;52.526;13.326;2023-04-28T08:49:15;101143.88;;;14.31;44.28
15750;BME280;7976;52.526;13.326;2023-04-28T08:51:49;101142.44;;;14.42;44.33
15750;BME280;7976;52.526;13.326;2023-04-28T08:54:17;101137.59;;;14.52;44.22
15750;BME280;7976;52.526;13.326;2023-04-28T08:56:46;101138.09;;;14.60;44.06
15750;BME280;7976;52.526;13.326;2023-04-28T08:59:14;101134.19;;;14.50;43.61
15750;BME280;7976;52.526;13.326;2023-04-28T09:01:42;101133.41;;;14.48;43.78
15750;BME280;7976;52.526;13.326;2023-04-28T09:04:10;101118.31;;;14.51;43.63
15750;BME280;7976;52.526;13.326;2023-04-28T09:06:38;101118.66;;;14.62;43.88
15750;BME280;7976;52.526;13.326;2023-04-28T09:09:22;101116.88;;;14.63;43.45
15750;BME280;7976;52.526;13.326;2023-04-28T09:11:54;101116.00;;;14.62;43.08
15750;BME280;7976;52.526;13.326;2023-04-28T09:14:22;101104.84;;;14.57;43.40
15750;BME280;7976;52.526;13.326;2023-04-28T09:16:49;101105.00;;;14.54;42.84
15750;BME280;7976;52.526;13.326;2023-04-28T09:19:17;101107.78;;;14.51;42.72
15750;BME280;7976;52.526;13.326;2023-04-28T09:21:51;101098.88;;;14.54;42.66
15750;BME280;7976;52.526;13.326;2023-04-28T09:24:29;101097.72;;;14.59;42.70
15750;BME280;7976;52.526;13.326;2023-04-28T09:26:57;101094.78;;;14.65;42.50
15750;BME280;7976;52.526;13.326;2023-04-28T09:29:24;101089.31;;;14.70;42.50
15750;BME280;7976;52.526;13.326;2023-04-28T09:31:51;101091.25;;;14.66;42.70
15750;BME280;7976;52.526;13.326;2023-04-28T09:34:19;101091.31;;;14.65;42.97
15750;BME280;7976;52.526;13.326;2023-04-28T09:36:46;101085.66;;;14.72;42.77
15750;BME280;7976;52.526;13.326;2023-04-28T09:39:27;101079.56;;;14.89;42.67
15750;BME280;7976;52.526;13.326;2023-04-28T09:41:54;101077.34;;;14.98;42.23
15750;BME280;7976;52.526;13.326;2023-04-28T09:44:21;101078.66;;;15.07;42.29
15750;BME280;7976;52.526;13.326;2023-04-28T09:46:48;101069.13;;;15.22;41.72
15750;BME280;7976;52.526;13.326;2023-04-28T09:49:15;101070.13;;;15.36;41.90
15750;BME280;7976;52.526;13.326;2023-04-28T09:51:42;101060.59;;;15.51;41.48
15750;BME280;7976;52.526;13.326;2023-04-28T09:54:11;101071.13;;;15.68;41.25
15750;BME280;7976;52.526;13.326;2023-04-28T09:56:42;101059.47;;;15.72;41.13
15750;BME280;7976;52.526;13.326;2023-04-28T09:59:10;101067.31;;;15.73;41.14
15750;BME280;7976;52.526;13.326;2023-04-28T10:01:39;101068.78;;;15.79;41.05
15750;BME280;7976;52.526;13.326;2023-04-28T10:04:08;101058.66;;;15.87;40.85
15750;BME280;7976;52.526;13.326;2023-04-28T10:06:36;101057.53;;;15.91;41.08
15750;BME280;7976;52.526;13.326;2023-04-28T10:09:04;101051.16;;;15.95;41.02
15750;BME280;7976;52.526;13.326;2023-04-28T10:11:33;101055.00;;;16.05;41.14
15750;BME280;7976;52.526;13.326;2023-04-28T10:14:01;101051.88;;;16.14;40.90
15750;BME280;7976;52.526;13.326;2023-04-28T10:16:30;101042.06;;;16.16;41.02
15750;BME280;7976;52.526;13.326;2023-04-28T10:18:59;101041.91;;;16.19;40.81
15750;BME280;7976;52.526;13.326;2023-04-28T10:21:32;101040.19;;;16.18;40.83
15750;BME280;7976;52.526;13.326;2023-04-28T10:24:09;101035.25;;;16.12;40.84
15750;BME280;7976;52.526;13.326;2023-04-28T10:27:02;101031.34;;;16.03;40.46
15750;BME280;7976;52.526;13.326;2023-04-28T10:29:32;101030.47;;;16.03;41.08
15750;BME280;7976;52.526;13.326;2023-04-28T10:32:18;101016.19;;;16.07;41.08
15750;BME280;7976;52.526;13.326;2023-04-28T10:34:46;101023.84;;;16.11;41.00
15750;BME280;7976;52.526;13.326;2023-04-28T10:37:14;101014.91;;;16.14;40.83
15750;BME280;7976;52.526;13.326;2023-04-28T10:40:32;101017.38;;;16.17;41.22
15750;BME280;7976;52.526;13.326;2023-04-28T10:42:59;101021.13;;;16.28;41.23
15750;BME280;7976;52.526;13.326;2023-04-28T10:46:03;101007.75;;;16.47;40.93
15750;BME280;7976;52.526;13.326;2023-04-28T10:49:04;101008.97;;;16.71;40.77
15750;BME280;7976;52.526;13.326;2023-04-28T10:51:34;101006.00;;;16.91;40.44
15750;BME280;7976;52.526;13.326;2023-04-28T10:54:18;101004.53;;;17.01;40.09
15750;BME280;7976;52.526;13.326;2023-04-28T10:57:14;100993.69;;;17.06;39.84
15750;BME280;7976;52.526;13.326;2023-04-28T10:59:42;100993.41;;;17.10;39.89
15750;BME280;7976;52.526;13.326;2023-04-28T11:02:41;100986.00;;;17.01;39.75
15750;BME280;7976;52.526;13.326;2023-04-28T11:05:15;100985.38;;;16.98;39.90
15750;BME280;7976;52.526;13.326;2023-04-28T11:11:18;100985.22;;;16.85;39.70
15750;BME280;7976;52.526;13.326;2023-04-28T11:13:46;100982.28;;;16.76;40.07
15750;BME280;7976;52.526;13.326;2023-04-28T11:16:16;100983.41;;;16.72;40.11
15750;BME280;7976;52.526;13.326;2023-04-28T11:18:57;100984.06;;;16.75;40.58
15750;BME280;7976;52.526;13.326;2023-04-28T11:21:25;100976.31;;;16.72;40.30
15750;BME280;7976;52.526;13.326;2023-04-28T11:23:53;100971.81;;;16.74;40.36
15750;BME280;7976;52.526;13.326;2023-04-28T11:26:21;100976.19;;;16.89;40.58
15750;BME280;7976;52.526;13.326;2023-04-28T11:28:51;100982.72;;;16.98;40.06
15750;BME280;7976;52.526;13.326;2023-04-28T11:31:20;100976.97;;;17.05;39.76
15750;BME280;7976;52.526;13.326;2023-04-28T11:33:58;100980.56;;;17.04;39.72
15750;BME280;7976;52.526;13.326;2023-04-28T11:36:32;100972.72;;;17.03;39.81
15750;BME280;7976;52.526;13.326;2023-04-28T11:39:00;100963.63;;;17.07;39.81
15750;BME280;7976;52.526;13.326;2023-04-28T11:41:30;100969.78;;;17.07;39.83
15750;BME280;7976;52.526;13.326;2023-04-28T11:43:57;100961.75;;;17.09;39.93
15750;BME280;7976;52.526;13.326;2023-04-28T11:46:25;100963.44;;;17.10;39.93
15750;BME280;7976;52.526;13.326;2023-04-28T11:49:05;100950.50;;;17.05;39.61
15750;BME280;7976;52.526;13.326;2023-04-28T11:51:37;100964.84;;;17.01;39.90
15750;BME280;7976;52.526;13.326;2023-04-28T11:54:05;100963.63;;;17.07;40.31
15750;BME280;7976;52.526;13.326;2023-04-28T11:56:38;100948.25;;;17.13;40.24
15750;BME280;7976;52.526;13.326;2023-04-28T11:59:07;100948.56;;;17.23;39.92
15750;BME280;7976;52.526;13.326;2023-04-28T12:01:45;100943.72;;;17.43;39.60
15750;BME280;7976;52.526;13.326;2023-04-28T12:04:14;100945.53;;;17.71;40.09
15750;BME280;7976;52.526;13.326;2023-04-28T12:06:59;100949.22;;;18.09;39.64
15750;BME280;7976;52.526;13.326;2023-04-28T12:09:26;100952.44;;;18.41;39.67
15750;BME280;7976;52.526;13.326;2023-04-28T12:11:58;100949.66;;;18.56;39.23
15750;BME280;7976;52.526;13.326;2023-04-28T12:14:27;100948.56;;;18.59;39.05
15750;BME280;7976;52.526;13.326;2023-04-28T12:16:54;100944.44;;;18.55;38.86
15750;BME280;7976;52.526;13.326;2023-04-28T12:19:24;100944.56;;;18.53;39.00
15750;BME280;7976;52.526;13.326;2023-04-28T12:22:03;100940.72;;;18.45;39.14
15750;BME280;7976;52.526;13.326;2023-04-28T12:24:31;100935.03;;;18.37;39.21
15750;BME280;7976;52.526;13.326;2023-04-28T12:27:15;100930.78;;;18.34;39.06
15750;BME280;7976;52.526;13.326;2023-04-28T12:29:43;100933.72;;;18.30;39.09
15750;BME280;7976;52.526;13.326;2023-04-28T12:32:11;100920.75;;;18.25;38.93
15750;BME280;7976;52.526;13.326;2023-04-28T12:34:41;100926.16;;;18.24;39.18
15750;BME280;7976;52.526;13.326;2023-04-28T12:37:08;100920.22;;;18.20;39.30
15750;BME280;7976;52.526;13.326;2023-04-28T12:39:39;100914.47;;;18.14;39.52
15750;BME280;7976;52.526;13.326;2023-04-28T12:42:06;100917.44;;;18.09;39.28
15750;BME280;7976;52.526;13.326;2023-04-28T12:44:35;100913.94;;;18.09;39.81
15750;BME280;7976;52.526;13.326;2023-04-28T12:47:08;100903.22;;;18.10;40.10
15750;BME280;7976;52.526;13.326;2023-04-28T12:49:36;100905.50;;;18.16;39.90
15750;BME280;7976;52.526;13.326;2023-04-28T12:52:05;100903.50;;;18.20;40.05
15750;BME280;7976;52.526;13.326;2023-04-28T12:54:32;100900.63;;;18.23;39.88
15750;BME280;7976;52.526;13.326;2023-04-28T12:56:59;100894.69;;;18.19;39.84
15750;BME280;7976;52.526;13.326;2023-04-28T12:59:26;100895.81;;;18.15;40.06
15750;BME280;7976;52.526;13.326;2023-04-28T13:01:53;100888.28;;;18.09;39.75
15750;BME280;7976;52.526;13.326;2023-04-28T13:04:21;100895.47;;;18.07;40.12
15750;BME280;7976;52.526;13.326;2023-04-28T13:06:47;100889.97;;;18.10;40.14
15750;BME280;7976;52.526;13.326;2023-04-28T13:09:16;100882.50;;;18.17;40.33